Time;durP1;ratioP1;P1;durP2;ratioP2;P2;SDS_P1;SDS_P2;PMS_P1;PMS_P2;Temp;Humidity;BMP_temperature;BMP_pressure;BME280_temperature;BME280_humidity;BME280_pressure;Samples;Min_cycle;Max_cycle;Signal;HPM_P1;HPM_P2
2023/01/01 00:01:20;;;;;;;21.63;14.27;;;;;;;17.74;46.43;101320.38;20920771;28;20049;-81
2023/01/01 00:11:21;;;;;;;23.30;15.00;;;;;;;17.74;46.68;101314.31;20919491;28;20095;-82
2023/01/01 00:21:21;;;;;;;23.95;15.63;;;;;;;17.74;46.43;101314.31;20920752;28;20053;-81
2023/01/01 00:31:21;;;;;;;22.92;15.18;;;;;;;17.72;46.59;101313.50;20916815;28;20041;-81
2023/01/01 00:41:22;;;;;;;24.33;16.33;;;;;;;17.72;46.58;101306.53;20920372;28;20059;-81
2023/01/01 00:51:23;;;;;;;27.23;17.67;;;;;;;17.71;46.56;101314.44;20916180;28;20040;-81
2023/01/01 01:01:23;;;;;;;27.67;18.33;;;;;;;17.71;46.43;101312.69;20898178;28;20083;-81
2023/01/01 01:11:24;;;;;;;28.35;17.88;;;;;;;17.70;46.39;101308.34;20897902;28;20475;-81
2023/01/01 01:21:27;;;;;;;28.08;19.05;;;;;;;17.70;46.49;101308.34;20913907;28;20408;-81
2023/01/01 01:31:31;;;;;;;29.90;19.35;;;;;;;17.69;46.46;101317.13;20913546;28;20412;-82
2023/01/01 01:41:31;;;;;;;32.72;19.98;;;;;;;17.69;46.39;101313.69;20913627;28;20049;-82
2023/01/01 01:51:38;;;;;;;33.33;20.88;;;;;;;17.68;46.35;101312.81;20905836;28;20052;-82
2023/01/01 02:01:39;;;;;;;33.28;20.77;;;;;;;17.69;46.40;101322.38;20911066;28;20052;-81
2023/01/01 02:11:39;;;;;;;31.65;20.38;;;;;;;17.68;46.42;101307.56;20896471;28;20059;-82
2023/01/01 02:21:58;;;;;;;31.63;20.95;;;;;;;17.67;46.42;101321.59;20920367;28;20040;-81
2023/01/01 02:32:06;;;;;;;31.08;20.58;;;;;;;17.67;46.55;101331.22;20919373;28;20499;-82
2023/01/01 02:42:07;;;;;;;33.40;21.23;;;;;;;17.68;46.34;101339.00;20919185;28;20052;-82
2023/01/01 02:52:42;;;;;;;32.03;20.88;;;;;;;17.67;46.50;101339.91;20912527;28;20741;-81
2023/01/01 03:03:10;;;;;;;34.05;21.25;;;;;;;17.68;46.39;101327.69;20908663;28;20056;-81
2023/01/01 03:13:43;;;;;;;31.50;20.63;;;;;;;17.66;46.36;101314.66;20924750;28;20068;-82
2023/01/01 03:23:48;;;;;;;30.40;20.80;;;;;;;17.65;46.52;101317.34;20870625;28;20518;-82
2023/01/01 03:34:05;;;;;;;30.20;20.27;;;;;;;17.66;46.29;101319.88;20921980;28;20403;-83
2023/01/01 03:44:17;;;;;;;30.98;20.75;;;;;;;17.64;46.22;101316.50;20920512;28;20530;-82
2023/01/01 03:54:31;;;;;;;28.98;19.30;;;;;;;17.64;46.30;101315.66;20917739;28;20037;-83
2023/01/01 04:04:34;;;;;;;29.67;20.20;;;;;;;17.63;46.39;101306.94;20921381;28;20167;-82
2023/01/01 04:14:37;;;;;;;28.38;19.42;;;;;;;17.63;46.27;101309.56;20921736;28;20036;-81
2023/01/01 04:24:37;;;;;;;29.60;19.70;;;;;;;17.63;46.38;101313.97;20923687;28;20065;-81
2023/01/01 04:34:38;;;;;;;28.08;18.90;;;;;;;17.63;46.32;101314.81;20917863;28;20064;-81
2023/01/01 04:44:38;;;;;;;26.85;18.85;;;;;;;17.62;46.20;101307.88;20907374;28;20094;-81
2023/01/01 04:54:38;;;;;;;29.23;18.95;;;;;;;17.61;46.30;101314.03;20915359;28;20048;-81
2023/01/01 05:04:39;;;;;;;28.45;18.77;;;;;;;17.63;46.20;101327.06;20915392;28;20068;-81
2023/01/01 05:14:39;;;;;;;26.15;18.17;;;;;;;17.62;46.24;101318.34;20913981;28;20513;-81
2023/01/01 05:24:41;;;;;;;25.88;17.85;;;;;;;17.61;46.42;101316.63;20919738;28;20037;-81
2023/01/01 05:34:42;;;;;;;25.45;17.80;;;;;;;17.60;46.32;101325.41;20910450;28;20060;-81
2023/01/01 05:44:43;;;;;;;26.75;17.80;;;;;;;17.60;46.41;101333.28;20913037;28;20563;-82
2023/01/01 05:54:43;;;;;;;25.95;18.33;;;;;;;17.59;46.27;101336.84;20911504;28;20182;-81
2023/01/01 06:04:44;;;;;;;24.38;16.73;;;;;;;17.58;46.37;101351.69;20905458;28;20421;-83
2023/01/01 06:14:44;;;;;;;23.25;16.08;;;;;;;17.59;46.22;101366.47;20907569;28;20072;-83
2023/01/01 06:24:44;;;;;;;23.77;16.67;;;;;;;17.60;46.32;101401.38;20907848;28;20111;-83
2023/01/01 06:34:45;;;;;;;23.27;16.42;;;;;;;17.60;46.32;101404.00;20936597;28;20037;-82
2023/01/01 06:44:45;;;;;;;21.77;15.85;;;;;;;17.58;46.40;101414.53;20926364;28;20064;-82
2023/01/01 06:54:46;;;;;;;21.75;15.15;;;;;;;17.58;46.30;101418.94;20934054;28;20132;-81
2023/01/01 07:04:46;;;;;;;21.75;15.63;;;;;;;17.58;46.24;101422.41;20935066;28;20073;-81
2023/01/01 07:14:46;;;;;;;23.58;16.25;;;;;;;17.57;46.35;101407.59;20936781;28;20041;-81
2023/01/01 07:24:47;;;;;;;23.08;15.48;;;;;;;17.58;46.23;101409.31;20937280;28;20128;-81
2023/01/01 07:34:48;;;;;;;22.35;15.85;;;;;;;17.60;46.41;101410.09;20928709;28;20040;-81
2023/01/01 07:44:48;;;;;;;20.52;14.50;;;;;;;17.60;46.16;101411.84;20901711;28;20033;-81
2023/01/01 07:54:49;;;;;;;20.33;14.68;;;;;;;17.60;46.16;101428.44;20901761;28;20041;-82
2023/01/01 08:04:49;;;;;;;21.45;14.93;;;;;;;17.62;46.29;101449.31;20915901;28;20120;-81
2023/01/01 08:14:49;;;;;;;20.60;14.60;;;;;;;17.62;46.25;101465.00;20915292;28;20037;-81
2023/01/01 08:24:50;;;;;;;19.83;13.73;;;;;;;17.63;46.25;101473.75;20912962;28;20408;-81
2023/01/01 08:34:51;;;;;;;20.42;14.45;;;;;;;17.64;46.15;101481.53;20912033;28;20037;-82
2023/01/01 08:44:52;;;;;;;20.20;13.68;;;;;;;17.66;46.20;101489.31;20894944;28;20407;-81
2023/01/01 08:54:52;;;;;;;19.05;13.18;;;;;;;17.67;46.27;101472.66;20896407;28;20053;-82
2023/01/01 09:04:53;;;;;;;18.15;13.30;;;;;;;17.68;46.00;101467.34;20911428;28;20056;-81
2023/01/01 09:14:53;;;;;;;18.23;12.80;;;;;;;17.71;46.23;101463.75;20911500;28;20044;-82
2023/01/01 09:24:56;;;;;;;17.58;12.55;;;;;;;17.71;46.09;101482.09;20894725;28;20764;-82
2023/01/01 09:34:56;;;;;;;19.20;13.63;;;;;;;17.71;46.15;101482.94;20914327;28;20040;-82
2023/01/01 09:45:04;;;;;;;16.48;12.25;;;;;;;17.72;46.18;101475.94;20908567;28;20128;-82
2023/01/01 09:55:15;;;;;;;17.80;12.82;;;;;;;17.72;46.16;101470.69;20893145;28;20056;-81
2023/01/01 10:05:34;;;;;;;16.90;12.05;;;;;;;17.73;46.17;101475.00;20911458;28;20515;-82
2023/01/01 10:15:40;;;;;;;17.15;11.93;;;;;;;17.73;46.31;101488.09;20911313;28;20124;-82
2023/01/01 10:25:41;;;;;;;16.17;11.50;;;;;;;17.74;46.32;101476.72;20904546;28;20049;-82
2023/01/01 10:35:49;;;;;;;15.60;11.43;;;;;;;17.74;46.00;101461.00;20892724;28;20415;-83
2023/01/01 10:45:52;;;;;;;15.60;10.80;;;;;;;17.76;46.13;101461.78;20904889;28;20105;-82
2023/01/01 10:56:03;;;;;;;15.57;10.70;;;;;;;17.79;46.04;101443.28;20879683;28;20049;-82
2023/01/01 11:06:36;;;;;;;14.65;10.27;;;;;;;17.82;46.21;101426.56;20903697;28;20107;-81
2023/01/01 11:16:38;;;;;;;13.68;10.05;;;;;;;17.82;46.11;101396.00;20918228;28;20522;-81
2023/01/01 11:26:39;;;;;;;14.52;10.32;;;;;;;17.87;46.15;101365.19;20919383;28;20432;-82
2023/01/01 11:36:39;;;;;;;12.82;10.00;;;;;;;17.92;46.02;101396.41;20918275;28;20041;-81
2023/01/01 11:46:45;;;;;;;13.45;9.43;;;;;;;17.96;45.93;101387.50;20909039;28;20401;-81
2023/01/01 11:56:49;;;;;;;13.63;10.07;;;;;;;18.01;46.18;101376.81;20918480;28;20045;-82
2023/01/01 12:06:59;;;;;;;11.88;8.93;;;;;;;18.03;46.09;101364.50;20896583;28;20076;-81
2023/01/01 12:17:06;;;;;;;12.68;9.15;;;;;;;18.03;45.94;101359.25;20915538;28;20045;-81
2023/01/01 12:27:18;;;;;;;10.95;8.65;;;;;;;18.07;45.99;101366.03;20892253;28;20072;-81
2023/01/01 12:37:27;;;;;;;12.68;9.13;;;;;;;18.16;46.01;101331.53;20914259;28;20045;-81
2023/01/01 12:47:27;;;;;;;11.13;8.70;;;;;;;18.26;45.86;101333.66;20910887;28;20060;-81
2023/01/01 12:57:33;;;;;;;10.25;7.93;;;;;;;18.35;45.79;101357.66;20922360;28;20041;-82
2023/01/01 13:07:40;;;;;;;11.32;8.73;;;;;;;18.40;45.64;101357.44;20894957;28;20575;-81
2023/01/01 13:17:40;;;;;;;10.90;7.88;;;;;;;18.44;45.55;101368.63;20914476;28;20503;-81
2023/01/01 13:27:56;;;;;;;10.43;8.07;;;;;;;18.40;45.49;101371.38;20913465;28;20044;-82
2023/01/01 13:37:56;;;;;;;10.32;8.02;;;;;;;18.36;45.60;101369.84;20895855;28;20037;-81
2023/01/01 13:48:18;;;;;;;10.52;8.07;;;;;;;18.32;45.71;101383.16;20914121;28;20126;-81
2023/01/01 13:59:03;;;;;;;11.82;8.23;;;;;;;18.28;45.73;101390.34;20889000;28;20037;-81
2023/01/01 14:09:10;;;;;;;8.93;6.95;;;;;;;18.25;45.67;101395.75;20890294;28;20072;-81
2023/01/01 14:19:10;;;;;;;9.23;7.30;;;;;;;18.21;45.76;101397.66;20914592;28;20094;-81
2023/01/01 14:29:26;;;;;;;8.57;7.13;;;;;;;18.19;45.85;101398.66;20912379;28;20076;-81
2023/01/01 14:39:28;;;;;;;10.07;7.45;;;;;;;18.16;45.98;101396.19;20910181;28;20037;-81
2023/01/01 14:49:38;;;;;;;10.03;7.37;;;;;;;18.14;46.21;101401.50;20915663;28;20045;-81
2023/01/01 14:59:46;;;;;;;9.52;6.90;;;;;;;18.12;46.25;101407.75;20921788;28;20060;-81
2023/01/01 15:09:48;;;;;;;8.88;6.60;;;;;;;18.09;46.20;101403.50;20906849;28;20037;-82
2023/01/01 15:20:05;;;;;;;8.88;6.60;;;;;;;18.08;46.17;101420.16;20925777;28;20088;-81
2023/01/01 15:30:07;;;;;;;9.00;6.90;;;;;;;18.06;46.22;101416.75;20926359;28;20065;-81
2023/01/01 15:40:13;;;;;;;9.68;7.00;;;;;;;18.03;46.36;101425.59;20912638;28;20049;-81
2023/01/01 15:50:16;;;;;;;8.25;6.43;;;;;;;18.03;46.31;101430.84;20920085;28;20059;-81
2023/01/01 16:00:22;;;;;;;8.33;6.47;;;;;;;18.01;46.51;101435.31;20919140;28;20400;-82
2023/01/01 16:10:22;;;;;;;9.40;6.43;;;;;;;18.02;46.32;101450.13;20911368;28;20044;-81
2023/01/01 16:20:24;;;;;;;8.10;6.28;;;;;;;18.01;46.32;101447.56;20917681;28;20514;-83
2023/01/01 16:30:25;;;;;;;7.78;6.25;;;;;;;18.00;46.39;101445.88;20918624;28;20098;-81
2023/01/01 16:40:26;;;;;;;7.85;6.25;;;;;;;17.99;46.48;101463.38;20917154;28;20041;-81
2023/01/01 16:50:26;;;;;;;8.85;6.80;;;;;;;17.99;46.44;101473.00;20913473;28;20056;-81
2023/01/01 17:00:27;;;;;;;8.13;6.63;;;;;;;17.99;46.50;101483.47;20916763;28;20581;-81
2023/01/01 17:10:30;;;;;;;9.68;6.90;;;;;;;17.99;46.45;101473.00;20913727;28;20265;-82
2023/01/01 17:20:33;;;;;;;7.77;6.37;;;;;;;17.98;46.58;101473.91;20917367;28;20044;-82
2023/01/01 17:30:33;;;;;;;8.50;6.13;;;;;;;17.96;46.49;101466.13;20912048;28;20301;-81
2023/01/01 17:40:34;;;;;;;8.65;6.63;;;;;;;17.96;46.50;101476.59;20914752;28;20048;-81
2023/01/01 17:50:35;;;;;;;9.27;6.72;;;;;;;17.97;46.35;101474.81;20895703;28;20111;-81
2023/01/01 18:00:35;;;;;;;8.60;6.22;;;;;;;17.96;46.59;101476.59;20904082;28;20052;-82
2023/01/01 18:10:36;;;;;;;8.43;6.28;;;;;;;17.96;46.65;101479.22;20889293;28;20555;-82
2023/01/01 18:20:37;;;;;;;8.93;6.45;;;;;;;17.96;46.66;101491.50;20914582;28;20055;-82
2023/01/01 18:30:38;;;;;;;8.73;6.78;;;;;;;17.95;46.64;101482.78;20906432;28;20029;-82
2023/01/01 18:40:49;;;;;;;8.07;6.32;;;;;;;17.95;46.63;101495.03;20908140;28;20045;-82
2023/01/01 18:50:50;;;;;;;7.75;6.25;;;;;;;17.96;46.61;101486.25;20913013;28;20037;-81
2023/01/01 19:00:52;;;;;;;8.23;6.43;;;;;;;17.96;46.72;101496.75;20895644;28;20044;-82
2023/01/01 19:10:58;;;;;;;8.48;6.70;;;;;;;17.96;46.71;101499.34;20907720;28;20048;-82
2023/01/01 19:21:11;;;;;;;8.27;6.78;;;;;;;17.95;46.66;101481.94;20894739;28;20131;-81
2023/01/01 19:31:12;;;;;;;8.30;6.30;;;;;;;17.93;46.73;101477.56;20890167;28;20063;-81
2023/01/01 19:41:13;;;;;;;8.52;6.60;;;;;;;17.93;46.73;101477.56;20914068;28;20037;-81
2023/01/01 19:51:14;;;;;;;8.50;6.40;;;;;;;17.93;46.68;101472.34;20915871;28;20606;-81
2023/01/01 20:01:15;;;;;;;9.20;6.78;;;;;;;17.94;46.61;101465.31;20916141;28;20148;-81
2023/01/01 20:11:16;;;;;;;8.48;6.18;;;;;;;17.95;46.79;101460.97;20903426;28;20048;-81
2023/01/01 20:31:50;;;;;;;9.13;6.45;;;;;;;17.93;46.71;101467.09;20917855;28;20399;-81
2023/01/01 20:41:50;;;;;;;8.38;6.35;;;;;;;17.93;46.86;101466.22;20903345;28;20044;-82
2023/01/01 20:51:52;;;;;;;9.20;6.55;;;;;;;17.93;46.62;101469.72;20888817;28;20160;-81
2023/01/01 21:01:52;;;;;;;7.88;6.20;;;;;;;17.94;46.82;101460.06;20908650;28;20057;-82
2023/01/01 21:11:53;;;;;;;9.75;6.55;;;;;;;17.94;46.77;101460.06;20892603;28;20056;-81
2023/01/01 21:21:55;;;;;;;8.52;6.32;;;;;;;17.93;46.71;101459.22;20893036;28;20048;-82
2023/01/01 21:32:21;;;;;;;7.88;6.03;;;;;;;17.95;46.83;101463.59;20892841;28;20047;-81
2023/01/01 21:42:23;;;;;;;7.95;5.78;;;;;;;17.93;46.86;101456.59;20883655;28;20072;-82
2023/01/01 21:52:24;;;;;;;9.05;6.43;;;;;;;17.96;46.79;101462.66;20893428;28;20044;-81
2023/01/01 22:02:31;;;;;;;9.15;6.07;;;;;;;17.95;46.77;101458.34;20905645;28;20052;-81
2023/01/01 22:12:34;;;;;;;8.88;6.63;;;;;;;17.95;46.82;101447.88;20905584;28;20033;-81
2023/01/01 22:22:42;;;;;;;8.57;5.88;;;;;;;17.95;46.88;101446.06;20904822;28;20049;-81
2023/01/01 22:32:50;;;;;;;8.63;6.18;;;;;;;17.94;46.88;101436.47;20890865;28;20025;-82
2023/01/01 22:42:51;;;;;;;8.30;5.95;;;;;;;17.95;46.85;101427.72;20903381;28;20049;-82
2023/01/01 22:52:52;;;;;;;7.78;5.53;;;;;;;17.95;46.91;101424.28;20901384;28;20043;-81
2023/01/01 23:02:52;;;;;;;7.95;5.43;;;;;;;17.96;46.73;101418.13;20905558;28;20049;-81
2023/01/01 23:12:53;;;;;;;7.60;5.70;;;;;;;17.96;46.73;101399.78;20895084;28;20076;-81
2023/01/01 23:22:54;;;;;;;7.97;5.68;;;;;;;17.97;46.88;101404.06;20903916;28;20057;-80
2023/01/01 23:32:55;;;;;;;7.38;5.57;;;;;;;17.94;46.79;101389.31;20922082;28;20079;-81
2023/01/01 23:42:55;;;;;;;7.15;5.50;;;;;;;17.94;46.91;101389.31;20916695;28;20040;-82
2023/01/01 23:52:55;;;;;;;8.13;6.15;;;;;;;17.95;46.77;101388.44;20915694;28;20408;-82
